Time;durP1;ratioP1;P1;durP2;ratioP2;P2;SDS_P1;SDS_P2;PMS_P1;PMS_P2;Temp;Humidity;BMP_temperature;BMP_pressure;BME280_temperature;BME280_humidity;BME280_pressure;Samples;Min_cycle;Max_cycle;Signal;HPM_P1;HPM_P2
2023/08/01 00:02:22;;;;;;;6.88;2.13;;;17.90;99.90;;;;;;5051712;28;20163;-48
2023/08/01 00:04:48;;;;;;;6.28;2.67;;;17.80;99.90;;;;;;5051336;28;20211;-48
2023/08/01 00:07:13;;;;;;;4.90;2.15;;;18.20;99.90;;;;;;5050979;28;20186;-48
2023/08/01 00:09:39;;;;;;;6.07;2.33;;;18.20;99.90;;;;;;5051625;28;20155;-50
2023/08/01 00:12:05;;;;;;;5.43;2.70;;;18.00;99.90;;;;;;5051336;28;20285;-49
2023/08/01 00:14:31;;;;;;;7.05;2.10;;;17.90;99.90;;;;;;5051594;28;20174;-47
2023/08/01 00:16:56;;;;;;;9.40;2.28;;;17.90;99.90;;;;;;5051664;28;20173;-48
2023/08/01 00:19:22;;;;;;;6.72;1.80;;;18.00;99.90;;;;;;5051978;28;20297;-50
2023/08/01 00:21:47;;;;;;;4.88;1.90;;;17.90;99.90;;;;;;5051400;28;20170;-48
2023/08/01 00:24:16;;;;;;;4.82;1.42;;;17.70;99.90;;;;;;5051647;28;20630;-49
2023/08/01 00:26:41;;;;;;;4.82;2.08;;;18.00;99.90;;;;;;5051325;28;20167;-47
2023/08/01 00:29:07;;;;;;;6.45;3.00;;;18.00;99.90;;;;;;5051326;28;20225;-50
2023/08/01 00:31:32;;;;;;;7.07;2.63;;;17.80;99.90;;;;;;5051577;28;20175;-48
2023/08/01 00:33:58;;;;;;;5.43;1.92;;;17.70;99.90;;;;;;5051001;28;20518;-48
2023/08/01 00:36:23;;;;;;;1.63;1.02;;;17.70;99.90;;;;;;5051529;28;20178;-48
2023/08/01 00:38:49;;;;;;;1.23;0.70;;;17.70;99.90;;;;;;5051207;28;20207;-50
2023/08/01 00:41:14;;;;;;;2.00;0.68;;;17.70;99.90;;;;;;5051501;28;20182;-47
2023/08/01 00:43:40;;;;;;;3.20;0.65;;;18.00;99.90;;;;;;5051203;28;20304;-49
2023/08/01 00:46:08;;;;;;;3.15;0.68;;;17.90;99.90;;;;;;5051338;28;20688;-49
2023/08/01 00:48:33;;;;;;;1.75;0.60;;;17.60;99.90;;;;;;5051389;28;20175;-49
2023/08/01 00:51:01;;;;;;;0.50;0.50;;;17.60;99.90;;;;;;5049916;28;20171;-50
2023/08/01 00:53:28;;;;;;;2.95;0.50;;;17.60;99.90;;;;;;5051142;28;20187;-48
2023/08/01 00:55:54;;;;;;;0.95;0.63;;;17.80;99.90;;;;;;5051598;28;20244;-48
2023/08/01 00:58:20;;;;;;;3.10;0.60;;;17.80;99.90;;;;;;5051000;28;20241;-48
2023/08/01 01:00:46;;;;;;;1.05;0.88;;;17.90;99.90;;;;;;5051293;28;20301;-48
2023/08/01 01:03:12;;;;;;;2.25;0.60;;;17.90;99.90;;;;;;5050659;28;20529;-51
2023/08/01 01:05:45;;;;;;;2.55;0.57;;;17.60;99.90;;;;;;5050923;28;20604;-50
2023/08/01 01:08:11;;;;;;;1.08;0.73;;;17.60;99.90;;;;;;5051076;28;20213;-52
2023/08/01 01:10:37;;;;;;;0.98;0.57;;;17.70;99.90;;;;;;5050991;28;20567;-52
2023/08/01 01:13:03;;;;;;;4.88;0.80;;;17.90;99.90;;;;;;5050759;28;20572;-51
2023/08/01 01:15:28;;;;;;;1.83;0.77;;;17.70;99.90;;;;;;5050908;28;20258;-50
2023/08/01 01:17:54;;;;;;;0.40;0.40;;;17.70;99.90;;;;;;5051519;28;20238;-51
2023/08/01 01:20:24;;;;;;;1.83;0.60;;;17.70;99.90;;;;;;5054658;28;20230;-51
2023/08/01 01:22:52;;;;;;;0.47;0.47;;;17.40;99.90;;;;;;5054683;28;20170;-51
2023/08/01 01:25:21;;;;;;;0.60;0.47;;;17.60;99.90;;;;;;5054629;28;20630;-49
2023/08/01 01:27:49;;;;;;;1.17;0.75;;;17.60;99.90;;;;;;5053338;28;20630;-52
2023/08/01 01:30:15;;;;;;;0.50;0.50;;;17.50;99.90;;;;;;5054538;28;20186;-50
2023/08/01 01:32:41;;;;;;;0.77;0.43;;;17.50;99.90;;;;;;5054517;28;20175;-51
2023/08/01 01:35:07;;;;;;;0.52;0.52;;;17.40;99.90;;;;;;5054457;28;20177;-51
2023/08/01 01:37:32;;;;;;;1.15;0.68;;;17.50;99.90;;;;;;5054417;28;20171;-49
2023/08/01 01:39:58;;;;;;;0.57;0.57;;;17.30;99.90;;;;;;5054309;28;20216;-51
2023/08/01 01:42:23;;;;;;;2.08;0.70;;;17.40;99.90;;;;;;5054565;28;20202;-50
2023/08/01 01:44:49;;;;;;;0.65;0.50;;;17.40;99.90;;;;;;5053002;28;20166;-51
2023/08/01 01:47:14;;;;;;;1.50;0.57;;;17.50;99.90;;;;;;5054529;28;20170;-51
2023/08/01 01:49:40;;;;;;;0.60;0.60;;;17.50;99.90;;;;;;5054155;28;20193;-49
2023/08/01 01:52:06;;;;;;;1.75;0.77;;;17.20;99.90;;;;;;5054188;28;20190;-50
2023/08/01 01:54:31;;;;;;;1.38;0.70;;;17.40;99.90;;;;;;5054078;28;20198;-51
2023/08/01 01:56:57;;;;;;;2.25;0.80;;;17.20;99.90;;;;;;5054027;28;20246;-48
2023/08/01 01:59:22;;;;;;;2.38;0.90;;;17.50;99.90;;;;;;5054406;28;20287;-50
2023/08/01 02:01:48;;;;;;;1.13;1.02;;;17.10;99.90;;;;;;5053613;28;20171;-50
2023/08/01 02:04:13;;;;;;;0.88;0.88;;;17.40;99.90;;;;;;5053702;28;20178;-51
2023/08/01 02:06:39;;;;;;;5.82;1.17;;;17.20;99.90;;;;;;5052656;28;20177;-51
2023/08/01 02:09:06;;;;;;;4.63;0.90;;;17.20;99.90;;;;;;5053752;28;20171;-50
2023/08/01 02:11:31;;;;;;;0.93;0.90;;;17.30;99.90;;;;;;5053552;28;20221;-50
2023/08/01 02:13:57;;;;;;;2.70;1.20;;;17.30;99.90;;;;;;5053709;28;20158;-51
2023/08/01 02:16:22;;;;;;;2.05;1.10;;;17.20;99.90;;;;;;5054207;28;20167;-47
2023/08/01 02:18:48;;;;;;;4.22;1.20;;;17.20;99.90;;;;;;5053525;28;20210;-51
2023/08/01 02:21:13;;;;;;;1.38;1.27;;;17.30;99.90;;;;;;5053632;28;20261;-49
2023/08/01 02:23:39;;;;;;;1.10;1.00;;;17.00;99.90;;;;;;5053556;28;20170;-51
2023/08/01 02:26:05;;;;;;;3.25;1.20;;;16.90;99.90;;;;;;5053609;28;20170;-50
2023/08/01 02:28:31;;;;;;;3.10;1.20;;;17.00;99.90;;;;;;5053513;28;20169;-50
2023/08/01 02:30:56;;;;;;;4.82;1.20;;;17.10;99.90;;;;;;5052865;28;20170;-49
2023/08/01 02:33:22;;;;;;;2.20;1.30;;;17.10;99.90;;;;;;5053521;28;20236;-51
2023/08/01 02:35:47;;;;;;;1.88;1.42;;;17.10;99.90;;;;;;5053388;28;20524;-48
2023/08/01 02:38:13;;;;;;;4.45;1.60;;;17.20;99.90;;;;;;5053234;28;20213;-50
2023/08/01 02:40:38;;;;;;;1.33;1.13;;;17.10;99.90;;;;;;5053193;28;20170;-51
2023/08/01 02:43:04;;;;;;;1.20;1.10;;;16.90;99.90;;;;;;5053190;28;20254;-51
2023/08/01 02:45:30;;;;;;;2.58;1.67;;;17.10;99.90;;;;;;5053178;28;20225;-48
2023/08/01 02:47:55;;;;;;;2.40;1.42;;;17.10;99.90;;;;;;5053241;28;20626;-48
2023/08/01 02:50:21;;;;;;;2.88;1.70;;;17.00;99.90;;;;;;5053732;28;20210;-48
2023/08/01 02:52:46;;;;;;;3.13;2.08;;;17.00;99.90;;;;;;5052949;28;20174;-48
2023/08/01 02:55:12;;;;;;;2.00;1.90;;;16.90;99.90;;;;;;5052960;28;20174;-48
2023/08/01 02:57:37;;;;;;;3.08;2.20;;;16.80;99.90;;;;;;5052988;28;20654;-51
2023/08/01 03:00:05;;;;;;;1.92;1.83;;;16.70;99.90;;;;;;5052715;28;20210;-48
2023/08/01 03:02:31;;;;;;;2.95;2.10;;;17.00;99.90;;;;;;5052643;28;20170;-50
2023/08/01 03:04:57;;;;;;;2.88;2.58;;;16.70;99.90;;;;;;5052541;28;20236;-52
2023/08/01 03:07:23;;;;;;;3.70;3.00;;;16.70;99.90;;;;;;5053197;28;20257;-51
2023/08/01 03:09:49;;;;;;;2.67;2.47;;;17.00;99.90;;;;;;5052929;28;20170;-51
2023/08/01 03:12:14;;;;;;;4.97;2.90;;;16.90;99.90;;;;;;5052569;28;20230;-50
2023/08/01 03:14:43;;;;;;;3.58;3.22;;;16.70;99.90;;;;;;5052609;28;20614;-51
2023/08/01 03:17:08;;;;;;;4.55;3.20;;;16.90;99.90;;;;;;5052636;28;20159;-49
2023/08/01 03:19:34;;;;;;;4.03;3.67;;;16.60;99.90;;;;;;5052359;28;20237;-50
2023/08/01 03:22:00;;;;;;;6.28;3.88;;;16.60;99.90;;;;;;5052692;28;20175;-49
2023/08/01 03:24:25;;;;;;;6.05;4.10;;;16.80;99.90;;;;;;5052293;28;20167;-48
2023/08/01 03:26:51;;;;;;;8.77;4.10;;;16.60;99.90;;;;;;5052781;28;20224;-52
2023/08/01 03:29:16;;;;;;;4.65;4.25;;;16.50;99.90;;;;;;5052186;28;20528;-50
2023/08/01 03:31:42;;;;;;;5.72;4.47;;;16.60;99.90;;;;;;5051831;28;20179;-48
2023/08/01 03:34:08;;;;;;;6.40;5.18;;;16.50;99.90;;;;;;5051347;28;20186;-48
2023/08/01 03:36:34;;;;;;;9.35;5.25;;;16.60;99.90;;;;;;5051880;28;20203;-50
2023/08/01 03:39:00;;;;;;;8.52;5.45;;;16.60;99.90;;;;;;5051483;28;20248;-48
2023/08/01 03:41:26;;;;;;;7.85;5.13;;;16.40;99.90;;;;;;5050949;28;20167;-51
2023/08/01 03:43:51;;;;;;;7.25;5.93;;;16.70;99.90;;;;;;5051623;28;20174;-51
2023/08/01 03:46:17;;;;;;;8.90;7.25;;;16.50;99.90;;;;;;5051448;28;20158;-48
2023/08/01 03:48:43;;;;;;;10.68;6.18;;;16.40;99.90;;;;;;5051233;28;20171;-51
2023/08/01 03:51:08;;;;;;;9.68;6.55;;;16.40;99.90;;;;;;5051360;28;20682;-51
2023/08/01 03:53:34;;;;;;;9.38;6.05;;;16.40;99.90;;;;;;5051308;28;20175;-49
2023/08/01 03:55:59;;;;;;;9.90;6.38;;;16.50;99.90;;;;;;5051246;28;20610;-51
2023/08/01 03:58:25;;;;;;;8.25;6.40;;;16.30;99.90;;;;;;5051406;28;20211;-49
2023/08/01 04:00:50;;;;;;;9.57;5.47;;;16.20;99.90;;;;;;5051639;28;20170;-52
2023/08/01 04:03:16;;;;;;;13.45;7.00;;;16.40;99.90;;;;;;5050811;28;20202;-52
2023/08/01 04:05:42;;;;;;;9.05;5.65;;;16.30;99.90;;;;;;5051119;28;20202;-51
2023/08/01 04:08:08;;;;;;;10.70;5.15;;;16.40;99.90;;;;;;5051329;28;20174;-51
2023/08/01 04:10:33;;;;;;;8.93;4.82;;;16.10;99.90;;;;;;5051056;28;20174;-50
2023/08/01 04:12:59;;;;;;;7.30;5.18;;;16.10;99.90;;;;;;5051152;28;20218;-47
2023/08/01 04:15:24;;;;;;;9.32;5.25;;;16.20;99.90;;;;;;5051445;28;20626;-50
2023/08/01 04:17:50;;;;;;;7.10;5.47;;;16.20;99.90;;;;;;5051400;28;20526;-52
2023/08/01 04:20:16;;;;;;;8.40;5.63;;;16.30;99.90;;;;;;5051164;28;20206;-51
2023/08/01 04:22:41;;;;;;;9.85;5.10;;;16.30;99.90;;;;;;5050723;28;20174;-51
2023/08/01 04:25:07;;;;;;;11.13;5.45;;;16.30;99.90;;;;;;5049659;28;20334;-51
2023/08/01 04:27:33;;;;;;;9.85;5.30;;;16.10;99.90;;;;;;5050902;28;20167;-51
2023/08/01 04:29:58;;;;;;;6.22;5.15;;;16.20;99.90;;;;;;5050777;28;20191;-48
2023/08/01 04:32:24;;;;;;;8.15;5.45;;;16.00;99.90;;;;;;5050904;28;20232;-51
2023/08/01 04:34:49;;;;;;;8.57;5.38;;;16.30;99.90;;;;;;5050695;28;20678;-48
2023/08/01 04:37:15;;;;;;;9.82;5.68;;;16.20;99.90;;;;;;5050647;28;20524;-51
2023/08/01 04:39:41;;;;;;;8.63;4.95;;;16.10;99.90;;;;;;5050469;28;20260;-50
2023/08/01 04:42:06;;;;;;;15.27;6.13;;;16.30;99.90;;;;;;5050482;28;20169;-52
2023/08/01 04:44:32;;;;;;;8.50;5.10;;;16.20;99.90;;;;;;5050913;28;20526;-51
2023/08/01 04:46:58;;;;;;;9.07;5.95;;;16.00;99.90;;;;;;5050876;28;20178;-52
2023/08/01 04:49:24;;;;;;;9.07;5.78;;;16.00;99.90;;;;;;5050543;28;20170;-52
2023/08/01 04:51:50;;;;;;;11.93;5.60;;;16.00;99.90;;;;;;5050651;28;20206;-52
2023/08/01 04:54:16;;;;;;;15.48;6.45;;;16.10;99.90;;;;;;5052983;28;20253;-52
2023/08/01 04:56:41;;;;;;;11.48;5.63;;;16.00;99.90;;;;;;5054740;28;20198;-51
2023/08/01 04:59:07;;;;;;;11.20;6.13;;;16.20;99.90;;;;;;5054433;28;20303;-51
2023/08/01 05:01:33;;;;;;;8.95;5.85;;;16.00;99.90;;;;;;5054704;28;20193;-51
2023/08/01 05:03:58;;;;;;;11.25;6.05;;;15.90;99.90;;;;;;5054332;28;20567;-49
2023/08/01 05:06:24;;;;;;;11.98;6.22;;;16.10;99.90;;;;;;5037009;28;20197;-51
2023/08/01 05:08:50;;;;;;;13.68;6.30;;;14.10;99.90;;;;;;5054642;28;20174;-52
2023/08/01 05:11:15;;;;;;;10.52;5.63;;;15.90;99.90;;;;;;5052734;28;20162;-51
2023/08/01 05:13:41;;;;;;;9.75;5.85;;;15.80;99.90;;;;;;5054264;28;20171;-52
2023/08/01 05:16:06;;;;;;;11.13;6.60;;;16.00;99.90;;;;;;5054138;28;20307;-51
2023/08/01 05:18:32;;;;;;;8.63;5.70;;;15.90;99.90;;;;;;5053909;28;20163;-52
2023/08/01 05:20:57;;;;;;;8.73;5.22;;;15.90;99.90;;;;;;5053890;28;20198;-51
2023/08/01 05:23:23;;;;;;;7.85;5.63;;;16.00;99.90;;;;;;5054495;28;20180;-51
2023/08/01 05:25:48;;;;;;;11.93;5.50;;;15.90;99.90;;;;;;5053944;28;20201;-49
2023/08/01 05:28:15;;;;;;;8.25;4.65;;;16.10;99.90;;;;;;5054167;28;20167;-51
2023/08/01 05:30:40;;;;;;;8.02;4.90;;;16.00;99.90;;;;;;5054181;28;20237;-51
2023/08/01 05:33:06;;;;;;;11.13;5.05;;;16.20;99.90;;;;;;5053964;28;20242;-49
2023/08/01 05:35:32;;;;;;;10.57;5.25;;;16.20;99.90;;;;;;5053993;28;20167;-50
2023/08/01 05:37:57;;;;;;;9.38;4.63;;;16.20;99.90;;;;;;5035948;28;20175;-51
2023/08/01 05:40:23;;;;;;;8.45;4.30;;;16.00;99.90;;;;;;5054034;28;20633;-50
2023/08/01 05:42:48;;;;;;;8.98;4.68;;;16.30;99.90;;;;;;5053751;28;20166;-49
2023/08/01 05:45:14;;;;;;;9.45;4.82;;;16.40;99.90;;;;;;5053648;28;20269;-50
2023/08/01 05:47:40;;;;;;;9.15;4.30;;;16.30;99.90;;;;;;5053618;28;20159;-51
2023/08/01 05:50:07;;;;;;;8.13;4.10;;;16.40;99.90;;;;;;5053599;28;20171;-51
2023/08/01 05:52:33;;;;;;;6.65;4.50;;;16.50;99.90;;;;;;5053212;28;20167;-50
2023/08/01 05:54:59;;;;;;;8.98;4.32;;;16.50;99.90;;;;;;5053882;28;20166;-51
2023/08/01 05:57:25;;;;;;;10.88;5.00;;;16.50;99.90;;;;;;5053544;28;20216;-50
2023/08/01 05:59:50;;;;;;;7.25;4.40;;;16.40;99.90;;;;;;5053679;28;20202;-50
2023/08/01 06:02:16;;;;;;;6.65;4.25;;;16.50;99.90;;;;;;5053770;28;20322;-51
2023/08/01 06:04:42;;;;;;;9.27;4.88;;;16.60;99.90;;;;;;5052334;28;20163;-49
2023/08/01 06:07:07;;;;;;;8.38;4.85;;;16.50;99.90;;;;;;5053336;28;20198;-51
2023/08/01 06:09:33;;;;;;;7.65;4.30;;;16.70;99.90;;;;;;5053367;28;20171;-52
2023/08/01 06:11:58;;;;;;;8.02;4.93;;;16.80;99.90;;;;;;5053359;28;20206;-52
2023/08/01 06:14:24;;;;;;;7.80;4.65;;;16.80;99.90;;;;;;5053456;28;20174;-51
2023/08/01 06:16:50;;;;;;;13.23;4.88;;;16.70;99.90;;;;;;5053947;28;20250;-52
2023/08/01 06:19:15;;;;;;;10.82;5.38;;;16.80;99.90;;;;;;5053431;28;20696;-50
2023/08/01 06:21:41;;;;;;;7.10;4.88;;;16.80;99.90;;;;;;5052330;28;20239;-49
2023/08/01 06:24:08;;;;;;;13.68;5.15;;;17.00;99.90;;;;;;5053105;28;20255;-53
2023/08/01 06:26:34;;;;;;;6.90;4.35;;;17.00;99.90;;;;;;5053316;28;20195;-52
2023/08/01 06:28:59;;;;;;;10.75;4.88;;;16.90;99.90;;;;;;5052999;28;20167;-49
2023/08/01 06:31:25;;;;;;;9.55;5.00;;;16.90;99.90;;;;;;5052759;28;20222;-49
2023/08/01 06:33:51;;;;;;;11.07;5.00;;;16.80;99.90;;;;;;5053150;28;20174;-47
2023/08/01 06:36:17;;;;;;;7.65;4.47;;;16.90;99.90;;;;;;5053054;28;20171;-47
2023/08/01 06:38:43;;;;;;;11.25;4.50;;;17.20;99.90;;;;;;5052881;28;20198;-49
2023/08/01 06:41:08;;;;;;;11.38;4.75;;;17.20;99.90;;;;;;5052575;28;20665;-51
2023/08/01 06:43:37;;;;;;;10.40;5.20;;;17.20;99.90;;;;;;5052697;28;20505;-48
2023/08/01 06:46:03;;;;;;;7.85;4.40;;;17.30;99.90;;;;;;5052574;28;20174;-48
2023/08/01 06:48:28;;;;;;;8.18;4.85;;;17.20;99.90;;;;;;5036444;28;20578;-48
2023/08/01 06:50:54;;;;;;;8.73;4.30;;;17.20;99.90;;;;;;5052531;28;20179;-48
2023/08/01 06:53:20;;;;;;;5.38;4.20;;;17.20;99.90;;;;;;5053008;28;20163;-48
2023/08/01 06:55:45;;;;;;;10.50;4.85;;;17.00;99.90;;;;;;5052324;28;20173;-48
2023/08/01 06:58:11;;;;;;;8.40;4.88;;;16.90;99.90;;;;;;5052349;28;20503;-52
2023/08/01 07:00:36;;;;;;;13.13;5.07;;;17.00;99.90;;;;;;5052168;28;20202;-48
2023/08/01 07:03:02;;;;;;;9.32;4.70;;;17.20;99.90;;;;;;5052424;28;20175;-49
2023/08/01 07:05:27;;;;;;;9.65;5.78;;;17.10;99.90;;;;;;5052197;28;20210;-49
2023/08/01 07:07:53;;;;;;;12.00;5.57;;;17.10;99.90;;;;;;5052562;28;20170;-49
2023/08/01 07:10:18;;;;;;;11.18;6.05;;;17.40;99.90;;;;;;5052131;28;20167;-47
2023/08/01 07:12:44;;;;;;;8.68;5.05;;;17.50;99.90;;;;;;5051896;28;20313;-48
2023/08/01 07:15:10;;;;;;;11.88;5.18;;;17.60;99.90;;;;;;5052132;28;20162;-47
2023/08/01 07:17:35;;;;;;;9.73;5.13;;;17.70;99.90;;;;;;5051480;28;20182;-53
2023/08/01 07:20:02;;;;;;;10.77;5.03;;;17.80;99.90;;;;;;5052085;28;20313;-52
2023/08/01 07:22:28;;;;;;;8.48;5.57;;;17.80;99.90;;;;;;5051916;28;20253;-51
2023/08/01 07:24:54;;;;;;;7.32;5.00;;;17.80;99.90;;;;;;5052257;28;20220;-51
2023/08/01 07:27:20;;;;;;;9.82;4.70;;;17.90;99.90;;;;;;5052472;28;20588;-53
2023/08/01 07:29:45;;;;;;;13.30;5.00;;;18.00;99.90;;;;;;5051630;28;20198;-52
2023/08/01 07:32:11;;;;;;;10.02;5.07;;;18.00;99.90;;;;;;5051802;28;20166;-52
2023/08/01 07:34:37;;;;;;;9.68;5.03;;;18.10;99.90;;;;;;5051591;28;20194;-53
2023/08/01 07:37:02;;;;;;;9.27;4.65;;;18.40;99.90;;;;;;5051860;28;20178;-52
2023/08/01 07:39:28;;;;;;;7.13;4.30;;;18.30;99.90;;;;;;5051614;28;20214;-53
2023/08/01 07:41:55;;;;;;;8.85;4.40;;;18.20;99.90;;;;;;5051923;28;20167;-52
2023/08/01 07:44:21;;;;;;;9.02;4.55;;;18.10;99.90;;;;;;5051866;28;20194;-53
2023/08/01 07:46:46;;;;;;;9.07;4.18;;;18.10;99.90;;;;;;5051032;28;20213;-52
2023/08/01 07:49:12;;;;;;;10.68;4.65;;;18.10;99.90;;;;;;5051357;28;20195;-50
2023/08/01 07:51:37;;;;;;;9.15;3.80;;;18.00;99.90;;;;;;5051319;28;20190;-53
2023/08/01 07:54:03;;;;;;;7.60;4.30;;;18.00;99.90;;;;;;5051231;28;20167;-52
2023/08/01 07:56:28;;;;;;;9.73;4.10;;;18.20;99.90;;;;;;5051036;28;20634;-52
2023/08/01 07:58:54;;;;;;;8.50;4.43;;;18.40;99.90;;;;;;5049839;28;20578;-47
2023/08/01 08:01:20;;;;;;;11.85;4.28;;;18.70;99.90;;;;;;5051597;28;20622;-47
2023/08/01 08:03:46;;;;;;;7.10;4.47;;;19.00;99.90;;;;;;5049946;28;20171;-47
2023/08/01 08:06:11;;;;;;;14.10;4.85;;;18.90;99.90;;;;;;5049726;28;20689;-53
2023/08/01 08:08:37;;;;;;;7.50;3.95;;;18.70;99.90;;;;;;5051134;28;20174;-52
2023/08/01 08:11:03;;;;;;;8.57;5.05;;;18.40;99.90;;;;;;5050843;28;20630;-52
2023/08/01 08:13:28;;;;;;;7.53;4.75;;;18.20;99.90;;;;;;5050934;28;20171;-48
2023/08/01 08:15:57;;;;;;;8.45;4.95;;;18.10;99.90;;;;;;5050984;28;20594;-50
2023/08/01 08:18:23;;;;;;;11.02;4.72;;;18.10;99.90;;;;;;5050741;28;20182;-53
2023/08/01 08:20:49;;;;;;;7.03;4.25;;;18.80;99.90;;;;;;5051229;28;20174;-53
2023/08/01 08:23:14;;;;;;;8.50;4.55;;;18.30;99.90;;;;;;5051001;28;20166;-54
2023/08/01 08:25:41;;;;;;;8.73;4.88;;;18.60;99.90;;;;;;5051015;28;20258;-52
2023/08/01 08:28:07;;;;;;;8.07;4.00;;;18.90;99.90;;;;;;5050460;28;20163;-53
2023/08/01 08:30:33;;;;;;;7.53;4.22;;;19.00;99.90;;;;;;5051132;28;20551;-53
2023/08/01 08:33:03;;;;;;;7.10;4.10;;;19.00;99.90;;;;;;5051201;28;20213;-53
2023/08/01 08:35:30;;;;;;;7.40;3.70;;;19.00;99.90;;;;;;5050688;28;20201;-50
2023/08/01 08:37:55;;;;;;;10.32;4.15;;;19.00;99.90;;;;;;5050645;28;20174;-52
2023/08/01 08:40:21;;;;;;;5.50;3.35;;;18.90;99.90;;;;;;5051265;28;20221;-47
2023/08/01 08:42:49;;;;;;;7.60;4.47;;;18.90;99.90;;;;;;5050661;28;20166;-53
2023/08/01 08:45:19;;;;;;;9.32;4.68;;;18.60;99.90;;;;;;5050781;28;20246;-48
2023/08/01 08:47:52;;;;;;;6.13;3.80;;;18.60;99.90;;;;;;5050244;28;20257;-53
2023/08/01 08:50:19;;;;;;;9.07;3.88;;;18.70;99.90;;;;;;5049594;28;20170;-47
2023/08/01 08:52:45;;;;;;;7.43;3.70;;;19.00;99.90;;;;;;5050672;28;20212;-47
2023/08/01 08:55:11;;;;;;;11.32;4.00;;;19.40;99.90;;;;;;5050975;28;20166;-48
2023/08/01 08:57:39;;;;;;;4.00;3.40;;;19.50;99.90;;;;;;5050761;28;20162;-47
2023/08/01 09:00:06;;;;;;;6.65;3.63;;;19.30;99.90;;;;;;5050488;28;20292;-47
2023/08/01 09:02:33;;;;;;;8.32;3.28;;;19.10;99.90;;;;;;5050588;28;20221;-47
2023/08/01 09:04:59;;;;;;;7.07;3.40;;;19.00;99.90;;;;;;5050735;28;20186;-53
2023/08/01 09:07:29;;;;;;;5.13;2.95;;;19.20;99.90;;;;;;5050590;28;20166;-47
2023/08/01 09:09:55;;;;;;;8.57;3.65;;;19.30;99.90;;;;;;5050516;28;20499;-51
2023/08/01 09:12:21;;;;;;;7.43;3.90;;;19.30;99.90;;;;;;5050894;28;20218;-50
2023/08/01 09:14:50;;;;;;;5.20;3.40;;;19.20;99.90;;;;;;5049230;28;20206;-53
2023/08/01 09:17:18;;;;;;;7.15;3.40;;;19.00;99.90;;;;;;5050035;28;20527;-49
2023/08/01 09:19:44;;;;;;;4.85;3.40;;;19.20;99.90;;;;;;5050009;28;20225;-47
2023/08/01 09:22:13;;;;;;;8.15;3.42;;;19.40;99.90;;;;;;5050425;28;20634;-49
2023/08/01 09:24:49;;;;;;;5.53;3.17;;;19.50;99.90;;;;;;5049022;28;20240;-49
2023/08/01 09:27:15;;;;;;;7.82;3.90;;;19.70;99.90;;;;;;5050177;28;20631;-48
2023/08/01 09:29:40;;;;;;;6.97;3.97;;;19.60;99.90;;;;;;5050222;28;20182;-47
2023/08/01 09:32:16;;;;;;;6.32;3.90;;;19.80;99.90;;;;;;5050390;28;20162;-52
2023/08/01 09:34:43;;;;;;;8.60;4.40;;;19.70;99.90;;;;;;5050247;28;20166;-47
2023/08/01 09:37:09;;;;;;;5.10;2.85;;;19.70;99.90;;;;;;5050108;28;20592;-52
2023/08/01 09:39:35;;;;;;;8.55;3.85;;;19.70;99.90;;;;;;5050058;28;20214;-53
2023/08/01 09:42:02;;;;;;;11.07;3.70;;;19.90;99.90;;;;;;5053757;28;20162;-49
2023/08/01 09:44:29;;;;;;;6.13;3.60;;;19.90;99.90;;;;;;5054116;28;20178;-49
2023/08/01 09:46:59;;;;;;;4.85;3.47;;;19.90;99.90;;;;;;5053502;28;20170;-48
2023/08/01 09:49:26;;;;;;;5.60;2.85;;;19.90;99.90;;;;;;5053557;28;20178;-50
2023/08/01 09:51:52;;;;;;;7.25;3.65;;;20.10;99.90;;;;;;5054164;28;20649;-48
2023/08/01 09:54:18;;;;;;;4.43;2.95;;;20.00;99.90;;;;;;5053538;28;20189;-51
2023/08/01 09:56:45;;;;;;;7.20;3.38;;;19.90;99.90;;;;;;5052810;28;20201;-50
2023/08/01 09:59:12;;;;;;;5.75;3.05;;;20.10;99.90;;;;;;5053675;28;20196;-48
2023/08/01 10:01:40;;;;;;;7.00;3.45;;;20.40;99.90;;;;;;5053366;28;20250;-50
2023/08/01 10:04:07;;;;;;;5.70;3.63;;;20.50;99.90;;;;;;5053573;28;20166;-48
2023/08/01 10:06:36;;;;;;;5.57;3.10;;;20.50;99.90;;;;;;5053495;28;20171;-50
2023/08/01 10:09:02;;;;;;;5.97;3.00;;;20.50;99.90;;;;;;5053451;28;20159;-48
2023/08/01 10:11:33;;;;;;;7.75;3.47;;;20.60;99.90;;;;;;5053368;28;20213;-48
2023/08/01 10:13:58;;;;;;;6.45;2.75;;;20.30;99.90;;;;;;5053498;28;20201;-48
2023/08/01 10:16:24;;;;;;;7.57;3.75;;;20.00;99.90;;;;;;5052409;28;20194;-51
2023/08/01 10:18:51;;;;;;;5.90;3.28;;;19.90;99.90;;;;;;5053718;28;20697;-49
2023/08/01 10:21:18;;;;;;;5.45;3.58;;;19.90;99.90;;;;;;5053260;28;20551;-48
2023/08/01 10:23:46;;;;;;;5.57;3.30;;;20.30;99.90;;;;;;5053230;28;20166;-48
2023/08/01 10:26:12;;;;;;;8.85;3.50;;;20.30;99.90;;;;;;5051772;28;20221;-48
2023/08/01 10:28:41;;;;;;;5.57;2.90;;;20.70;99.90;;;;;;5053466;28;20621;-51
2023/08/01 10:31:14;;;;;;;4.50;3.13;;;21.00;99.90;;;;;;5053059;28;20533;-49
2023/08/01 10:33:42;;;;;;;9.75;3.25;;;21.10;99.90;;;;;;5053280;28;20201;-50
2023/08/01 10:36:22;;;;;;;5.30;2.92;;;21.70;99.90;;;;;;5053238;28;20534;-50
2023/08/01 10:38:53;;;;;;;6.35;3.03;;;21.70;99.90;;;;;;5052868;28;20734;-48
2023/08/01 10:41:26;;;;;;;7.13;2.60;;;21.60;99.90;;;;;;5053301;28;20192;-49
2023/08/01 10:43:51;;;;;;;4.05;2.58;;;21.70;99.90;;;;;;5053506;28;20166;-49
2023/08/01 10:46:17;;;;;;;5.13;2.65;;;21.30;99.90;;;;;;5052414;28;20181;-50
2023/08/01 10:48:52;;;;;;;6.53;2.97;;;21.30;99.90;;;;;;5052499;28;20563;-45
2023/08/01 10:51:18;;;;;;;3.78;2.22;;;21.30;99.90;;;;;;5051986;28;20637;-46
2023/08/01 10:53:44;;;;;;;7.45;3.00;;;21.50;99.90;;;;;;5052354;28;20172;-45
2023/08/01 10:56:18;;;;;;;5.68;2.85;;;21.60;99.90;;;;;;5052433;28;20688;-46
2023/08/01 10:58:44;;;;;;;9.88;3.22;;;21.30;99.90;;;;;;5052213;28;20170;-45
2023/08/01 11:01:10;;;;;;;5.60;2.58;;;21.40;99.90;;;;;;5052362;28;20166;-45
2023/08/01 11:03:37;;;;;;;5.65;2.88;;;21.60;99.90;;;;;;5052316;28;20228;-45
2023/08/01 11:06:03;;;;;;;6.70;3.03;;;21.60;99.90;;;;;;5051017;28;20205;-50
2023/08/01 11:08:40;;;;;;;7.40;2.70;;;21.70;99.90;;;;;;5052349;28;20220;-45
2023/08/01 11:11:10;;;;;;;5.72;2.90;;;22.00;99.90;;;;;;5052060;28;20264;-45
2023/08/01 11:13:36;;;;;;;7.43;2.40;;;22.20;99.90;;;;;;5052257;28;20188;-47
2023/08/01 11:16:06;;;;;;;4.03;2.42;;;22.30;99.90;;;;;;5050805;28;20618;-48
2023/08/01 11:18:42;;;;;;;3.75;2.20;;;22.20;99.90;;;;;;5050492;28;20174;-48
2023/08/01 11:21:07;;;;;;;6.25;2.80;;;21.90;99.90;;;;;;5050597;28;20177;-49
2023/08/01 11:23:33;;;;;;;4.10;3.00;;;21.60;99.90;;;;;;5050999;28;20162;-49
2023/08/01 11:25:58;;;;;;;6.03;2.80;;;21.70;99.90;;;;;;5051681;28;20182;-50
2023/08/01 11:28:24;;;;;;;3.97;2.33;;;22.20;99.90;;;;;;5051437;28;20243;-50
2023/08/01 11:30:50;;;;;;;5.97;2.45;;;22.70;99.90;;;;;;5052265;28;20174;-47
2023/08/01 11:33:22;;;;;;;5.47;2.70;;;22.40;99.90;;;;;;5051565;28;20170;-47
2023/08/01 11:35:59;;;;;;;5.22;2.70;;;21.90;99.90;;;;;;5050574;28;20254;-47
2023/08/01 11:38:29;;;;;;;5.38;2.45;;;21.90;99.90;;;;;;5051406;28;20173;-47
2023/08/01 11:40:57;;;;;;;4.32;2.80;;;22.40;99.90;;;;;;5051581;28;20213;-49
2023/08/01 11:43:23;;;;;;;5.47;2.85;;;22.70;99.90;;;;;;5051844;28;20571;-48
2023/08/01 11:45:50;;;;;;;7.85;2.72;;;22.80;99.90;;;;;;5051832;28;20257;-48
2023/08/01 11:48:15;;;;;;;4.43;2.30;;;22.50;99.90;;;;;;5050987;28;20174;-52
2023/08/01 11:50:41;;;;;;;3.47;1.92;;;22.60;99.90;;;;;;5051185;28;20170;-48
2023/08/01 11:53:21;;;;;;;4.95;2.25;;;22.90;99.90;;;;;;5051156;28;20656;-51
2023/08/01 11:55:47;;;;;;;5.50;2.60;;;22.50;99.90;;;;;;5051163;28;20782;-49
2023/08/01 11:58:14;;;;;;;3.67;2.35;;;22.30;99.90;;;;;;5051080;28;20220;-49
2023/08/01 12:00:40;;;;;;;7.15;2.40;;;22.00;99.90;;;;;;5051062;28;20299;-52
2023/08/01 12:03:13;;;;;;;6.28;2.40;;;22.30;99.90;;;;;;5050084;28;20634;-50
2023/08/01 12:05:41;;;;;;;4.07;2.20;;;22.90;99.90;;;;;;5050695;28;20618;-51
2023/08/01 12:08:14;;;;;;;3.95;2.30;;;23.00;99.90;;;;;;5050818;28;20621;-53
2023/08/01 12:10:45;;;;;;;3.75;2.25;;;22.90;99.90;;;;;;5051062;28;20296;-54
2023/08/01 12:13:25;;;;;;;5.68;2.35;;;22.70;99.90;;;;;;5050688;28;20218;-52
2023/08/01 12:15:52;;;;;;;4.35;2.40;;;22.40;99.90;;;;;;5051497;28;20166;-53
2023/08/01 12:18:28;;;;;;;4.43;2.20;;;22.10;99.90;;;;;;5051067;28;20257;-52
2023/08/01 12:20:54;;;;;;;3.80;2.47;;;22.10;99.90;;;;;;5050625;28;20236;-53
2023/08/01 12:23:21;;;;;;;6.40;3.58;;;21.70;99.90;;;;;;5051133;28;20532;-52
2023/08/01 12:25:47;;;;;;;5.13;2.45;;;21.20;99.90;;;;;;5050554;28;20170;-53
2023/08/01 12:28:13;;;;;;;4.53;2.55;;;21.00;99.90;;;;;;5050748;28;21115;-53
2023/08/01 12:30:43;;;;;;;8.40;3.90;;;21.10;99.90;;;;;;5050583;28;20250;-48
2023/08/01 12:33:09;;;;;;;6.55;3.42;;;20.80;99.90;;;;;;5050559;28;20238;-47
2023/08/01 12:35:38;;;;;;;7.72;2.92;;;20.50;99.90;;;;;;5050516;28;20270;-47
2023/08/01 12:38:04;;;;;;;6.95;3.28;;;20.50;99.90;;;;;;5049354;28;20198;-47
2023/08/01 12:40:30;;;;;;;9.25;3.15;;;20.70;99.90;;;;;;5050547;28;20234;-48
2023/08/01 12:42:55;;;;;;;8.68;3.05;;;21.20;99.90;;;;;;5050530;28;20250;-48